Time;durP1;ratioP1;P1;durP2;ratioP2;P2;SDS_P1;SDS_P2;PMS_P1;PMS_P2;Temp;Humidity;BMP_temperature;BMP_pressure;BME280_temperature;BME280_humidity;BME280_pressure;Samples;Min_cycle;Max_cycle;Signal;HPM_P1;HPM_P2
2021/07/12 00:01:17;;;;;;;15.85;8.60;;;;;;;20.91;70.50;99618.55;1769488;79;20912;-54
2021/07/12 00:03:43;;;;;;;13.98;7.78;;;;;;;20.89;70.65;99621.42;1778963;78;20901;-55
2021/07/12 00:06:11;;;;;;;13.10;7.53;;;;;;;20.89;70.81;99617.33;1806442;78;20914;-52
2021/07/12 00:08:39;;;;;;;12.45;7.40;;;;;;;20.89;70.84;99619.20;1777469;78;21798;-57
2021/07/12 00:11:05;;;;;;;15.30;8.83;;;;;;;20.89;70.84;99622.80;1800634;77;21093;-56
2021/07/12 00:13:33;;;;;;;14.45;9.08;;;;;;;20.87;70.83;99619.83;1802184;78;21066;-56
2021/07/12 00:16:01;;;;;;;19.20;9.90;;;;;;;20.84;70.82;99613.30;1784797;78;21068;-55
2021/07/12 00:18:28;;;;;;;13.13;9.25;;;;;;;20.82;70.82;99616.17;1772327;80;21770;-55
2021/07/12 00:20:56;;;;;;;13.83;7.92;;;;;;;20.78;70.85;99611.97;1784081;78;21046;-55
2021/07/12 00:23:22;;;;;;;9.88;7.62;;;;;;;20.76;70.96;99616.72;1811242;78;21025;-55
2021/07/12 00:25:51;;;;;;;14.05;8.85;;;;;;;20.73;70.94;99614.28;1779901;78;21052;-55
2021/07/12 00:28:19;;;;;;;12.60;8.03;;;;;;;20.71;71.00;99610.81;1782168;78;21374;-56
2021/07/12 00:30:47;;;;;;;19.45;9.63;;;;;;;20.71;71.01;99612.19;1788144;79;21036;-55
2021/07/12 00:33:13;;;;;;;11.50;9.48;;;;;;;20.69;71.05;99613.69;1784764;79;21129;-55
2021/07/12 00:35:41;;;;;;;17.52;9.80;;;;;;;20.67;71.08;99609.39;1782943;78;21055;-53
2021/07/12 00:38:08;;;;;;;17.48;8.75;;;;;;;20.64;71.14;99611.03;1784254;78;21056;-55
2021/07/12 00:40:36;;;;;;;8.83;7.10;;;;;;;20.60;71.15;99608.20;1808697;78;21037;-54
2021/07/12 00:43:05;;;;;;;12.07;6.37;;;;;;;20.56;71.26;99602.16;1754233;78;21077;-56
2021/07/12 00:45:31;;;;;;;15.45;8.18;;;;;;;20.51;71.30;99597.60;1794464;79;21144;-55
2021/07/12 00:47:59;;;;;;;14.85;6.92;;;;;;;20.47;71.48;99593.44;1789199;79;21530;-56
2021/07/12 00:50:28;;;;;;;9.35;6.28;;;;;;;20.45;71.59;99591.84;1785291;79;21535;-55
2021/07/12 00:52:55;;;;;;;6.67;5.90;;;;;;;20.43;71.61;99596.58;1787751;79;21084;-55
2021/07/12 00:55:42;;;;;;;6.92;6.05;;;;;;;20.43;71.53;99600.67;1785781;79;21071;-56
2021/07/12 00:58:12;;;;;;;6.90;6.20;;;;;;;20.42;71.44;99597.58;1763311;79;21605;-54
2021/07/12 01:00:40;;;;;;;8.73;5.33;;;;;;;20.39;71.37;99596.87;1781667;79;21128;-55
2021/07/12 01:03:09;;;;;;;6.83;6.05;;;;;;;20.38;71.37;99591.54;1787244;79;21049;-56
2021/07/12 01:05:35;;;;;;;7.83;6.08;;;;;;;20.35;71.39;99591.31;1784619;79;21129;-56
2021/07/12 01:08:03;;;;;;;7.85;5.75;;;;;;;20.35;71.41;99590.44;1780332;79;21127;-55
2021/07/12 01:10:31;;;;;;;6.92;5.33;;;;;;;20.32;71.44;99586.11;1785676;79;21150;-56
2021/07/12 01:13:46;;;;;;;7.08;5.15;;;;;;;20.30;71.50;99588.11;1785030;79;21048;-55
2021/07/12 01:16:48;;;;;;;5.97;5.47;;;;;;;20.29;71.61;99589.61;1785979;79;21080;-54
2021/07/12 01:20:05;;;;;;;8.55;6.00;;;;;;;20.28;71.87;99598.31;1785474;79;21064;-55
2021/07/12 01:22:43;;;;;;;8.63;6.30;;;;;;;20.28;71.91;99590.61;1782571;79;21388;-54
2021/07/12 01:25:36;;;;;;;8.05;6.55;;;;;;;20.27;71.85;99588.87;1784641;79;22090;-55
2021/07/12 01:28:58;;;;;;;7.65;6.95;;;;;;;20.25;71.92;99588.14;1748899;81;21382;-55
2021/07/12 01:32:08;;;;;;;7.15;6.25;;;;;;;20.23;71.96;99588.81;1724530;81;21087;-54
2021/07/12 01:34:46;;;;;;;6.58;5.90;;;;;;;20.19;71.95;99593.67;1748877;81;21705;-55
2021/07/12 01:37:32;;;;;;;10.45;5.40;;;;;;;20.19;72.06;99590.08;1724238;81;21052;-55
2021/07/12 01:40:08;;;;;;;6.45;5.83;;;;;;;20.19;72.10;99587.34;1721575;81;21250;-54
2021/07/12 01:42:46;;;;;;;8.88;7.70;;;;;;;20.16;72.00;99589.00;1724303;81;21048;-54
2021/07/12 01:45:15;;;;;;;14.55;7.55;;;;;;;20.14;72.02;99604.66;1785420;79;21437;-54
2021/07/12 01:48:13;;;;;;;7.62;6.95;;;;;;;20.12;72.18;99600.70;1777545;79;21381;-54
2021/07/12 01:50:54;;;;;;;7.33;6.65;;;;;;;20.11;72.21;99594.00;1754437;79;21068;-55
2021/07/12 01:53:55;;;;;;;8.00;6.42;;;;;;;20.09;72.32;99598.73;1772163;79;21126;-56
2021/07/12 01:56:37;;;;;;;8.18;6.25;;;;;;;20.07;72.31;99596.16;1776080;79;21044;-56
2021/07/12 01:59:25;;;;;;;7.50;6.42;;;;;;;20.07;72.32;99600.77;1779305;79;21060;-56
2021/07/12 02:01:54;;;;;;;6.28;5.92;;;;;;;20.04;72.40;99596.42;1777203;79;21578;-55
2021/07/12 02:04:27;;;;;;;7.22;6.45;;;;;;;20.05;72.48;99600.02;1751444;79;21081;-55
2021/07/12 02:06:54;;;;;;;7.92;6.65;;;;;;;20.06;72.57;99599.89;1748487;81;21186;-56
2021/07/12 02:09:20;;;;;;;6.85;6.22;;;;;;;20.08;72.55;99603.33;1723954;81;21124;-55
2021/07/12 02:11:49;;;;;;;8.55;7.55;;;;;;;20.09;72.48;99601.47;1748619;81;21016;-56
2021/07/12 02:14:17;;;;;;;7.25;6.40;;;;;;;20.10;72.53;99601.83;1770370;78;20973;-56
2021/07/12 02:16:45;;;;;;;9.10;6.12;;;;;;;20.10;72.44;99601.33;1805314;78;20965;-55
2021/07/12 02:19:11;;;;;;;8.25;6.08;;;;;;;20.10;72.46;99595.87;1803954;78;21775;-56
2021/07/12 02:21:40;;;;;;;6.55;5.80;;;;;;;20.11;72.48;99599.47;1800264;78;20922;-56
2021/07/12 02:24:11;;;;;;;7.30;5.42;;;;;;;20.10;72.54;99595.87;1804012;78;20957;-55
2021/07/12 02:26:38;;;;;;;5.80;5.30;;;;;;;20.12;72.61;99596.60;1804526;78;20871;-55
2021/07/12 02:29:07;;;;;;;7.05;6.45;;;;;;;20.14;72.66;99591.87;1802519;78;20906;-56
2021/07/12 02:31:34;;;;;;;6.30;5.90;;;;;;;20.16;72.62;99593.94;1784460;78;21807;-56
2021/07/12 02:34:03;;;;;;;7.78;6.97;;;;;;;20.19;72.40;99594.17;1805866;78;20929;-55
2021/07/12 02:36:30;;;;;;;7.42;6.78;;;;;;;20.19;72.36;99592.30;1744051;80;20938;-56
2021/07/12 02:38:56;;;;;;;8.48;6.17;;;;;;;20.19;72.26;99590.08;1777320;78;20969;-55
2021/07/12 02:41:23;;;;;;;7.30;6.58;;;;;;;20.20;72.42;99592.67;1770266;79;20978;-56
2021/07/12 02:43:50;;;;;;;8.10;6.40;;;;;;;20.20;72.52;99599.50;1741042;80;21102;-56
2021/07/12 02:46:19;;;;;;;6.72;6.25;;;;;;;20.21;72.66;99594.41;1780011;78;20934;-56
2021/07/12 02:48:46;;;;;;;7.62;6.62;;;;;;;20.23;72.81;99596.50;1809274;78;21538;-56
2021/07/12 02:51:16;;;;;;;6.72;6.20;;;;;;;20.25;72.90;99591.73;1775484;79;21500;-56
2021/07/12 02:53:48;;;;;;;7.80;6.35;;;;;;;20.29;73.00;99586.38;1751993;78;20993;-56
2021/07/12 02:56:15;;;;;;;8.13;7.20;;;;;;;20.34;73.13;99581.87;1772958;79;21063;-56
2021/07/12 02:58:41;;;;;;;8.18;7.00;;;;;;;20.36;73.16;99579.38;1780531;78;20922;-56
2021/07/12 03:01:08;;;;;;;7.65;6.53;;;;;;;20.38;73.09;99576.50;1747936;79;21060;-56
2021/07/12 03:03:36;;;;;;;10.72;6.87;;;;;;;20.38;73.11;99570.54;1769591;80;21309;-55
2021/07/12 03:06:14;;;;;;;7.90;7.03;;;;;;;20.41;73.28;99563.06;1803981;78;22447;-57
2021/07/12 03:09:08;;;;;;;7.10;6.42;;;;;;;20.44;73.39;99570.97;1768193;78;21121;-55
2021/07/12 03:11:59;;;;;;;8.15;6.05;;;;;;;20.47;73.55;99572.06;1798617;78;21074;-56
2021/07/12 03:14:46;;;;;;;8.73;5.80;;;;;;;20.53;73.72;99576.96;1804682;78;21894;-56
2021/07/12 03:17:16;;;;;;;9.08;8.48;;;;;;;20.58;73.71;99588.36;1800727;78;21076;-56
2021/07/12 03:19:44;;;;;;;10.15;8.08;;;;;;;20.64;73.79;99594.62;1802243;78;21483;-56
2021/07/12 03:22:11;;;;;;;11.10;10.03;;;;;;;20.71;73.84;99595.27;1802126;78;23063;-56
2021/07/12 03:24:40;;;;;;;8.78;7.83;;;;;;;20.76;73.72;99577.92;1792535;78;21108;-56
2021/07/12 03:27:13;;;;;;;9.60;6.70;;;;;;;20.83;74.27;99571.40;1777042;79;21048;-56
2021/07/12 03:29:39;;;;;;;9.50;8.35;;;;;;;20.88;74.23;99580.53;1773299;79;21496;-57
2021/07/12 03:32:08;;;;;;;8.65;6.45;;;;;;;20.93;74.08;99568.64;1774598;79;21023;-57
2021/07/12 03:34:35;;;;;;;10.95;7.33;;;;;;;20.97;74.49;99570.09;1772356;79;21600;-56
2021/07/12 03:37:02;;;;;;;7.55;6.85;;;;;;;21.02;74.43;99574.11;1802928;78;21247;-56
2021/07/12 03:39:29;;;;;;;6.95;6.45;;;;;;;21.07;74.34;99575.06;1799264;78;21073;-56
2021/07/12 03:41:57;;;;;;;9.63;6.75;;;;;;;21.12;74.46;99574.11;1780180;79;21076;-56
2021/07/12 03:44:25;;;;;;;6.97;6.30;;;;;;;21.20;74.55;99572.05;1783835;79;21076;-56
2021/07/12 03:46:53;;;;;;;8.30;7.55;;;;;;;21.28;74.23;99568.94;1781123;79;21382;-56
2021/07/12 03:49:21;;;;;;;7.85;6.87;;;;;;;21.36;73.88;99571.81;1752985;79;21537;-56
2021/07/12 03:51:51;;;;;;;9.93;8.55;;;;;;;21.41;73.59;99576.36;1784824;79;21076;-56
2021/07/12 03:54:17;;;;;;;13.62;9.08;;;;;;;21.46;73.59;99577.27;1785540;79;21005;-55
2021/07/12 03:56:44;;;;;;;7.95;7.15;;;;;;;21.52;73.84;99575.34;1783712;79;21079;-56
2021/07/12 03:59:10;;;;;;;13.75;8.48;;;;;;;21.58;74.14;99572.00;1780249;79;21119;-56
2021/07/12 04:01:37;;;;;;;6.70;6.05;;;;;;;21.65;74.00;99574.49;1782468;79;21072;-56
2021/07/12 04:04:04;;;;;;;6.47;5.97;;;;;;;21.73;74.41;99570.50;1782096;79;21096;-55
2021/07/12 04:06:31;;;;;;;7.87;7.05;;;;;;;21.80;74.75;99568.89;1784714;79;21096;-56
2021/07/12 04:08:59;;;;;;;6.80;6.22;;;;;;;21.88;74.87;99570.37;1778405;79;21103;-56
2021/07/12 04:11:34;;;;;;;6.10;5.33;;;;;;;21.97;74.92;99566.37;1781406;79;22342;-55
2021/07/12 04:13:59;;;;;;;8.23;7.45;;;;;;;22.04;74.75;99562.04;1779996;78;21070;-56
2021/07/12 04:16:25;;;;;;;6.58;6.08;;;;;;;22.10;74.63;99560.95;1801439;78;22284;-56
2021/07/12 04:18:52;;;;;;;8.15;7.45;;;;;;;22.13;74.15;99552.41;1770599;80;21389;-57
2021/07/12 04:21:19;;;;;;;10.45;7.80;;;;;;;22.15;73.40;99561.34;1771714;78;21574;-57
2021/07/12 04:23:47;;;;;;;8.60;8.00;;;;;;;22.17;72.80;99556.58;1768871;78;21741;-56
2021/07/12 04:26:13;;;;;;;10.32;9.15;;;;;;;22.22;72.28;99564.33;1770633;79;21033;-57
2021/07/12 04:28:40;;;;;;;12.05;8.75;;;;;;;22.25;71.67;99569.02;1801393;78;21107;-57
2021/07/12 04:31:06;;;;;;;9.00;8.28;;;;;;;22.28;71.73;99562.38;1798073;78;21412;-57
2021/07/12 04:33:32;;;;;;;7.35;6.85;;;;;;;22.34;71.86;99566.37;1771703;80;20934;-56
2021/07/12 04:35:59;;;;;;;14.00;7.35;;;;;;;22.37;72.14;99557.31;1774985;79;21110;-57
2021/07/12 04:38:25;;;;;;;8.35;7.62;;;;;;;22.40;72.51;99558.39;1771880;79;21089;-57
2021/07/12 04:40:51;;;;;;;17.92;8.15;;;;;;;22.45;72.71;99562.92;1770525;79;21131;-57
2021/07/12 04:43:19;;;;;;;7.58;7.17;;;;;;;22.49;72.30;99569.81;1774191;79;21504;-57
2021/07/12 04:45:45;;;;;;;9.63;8.73;;;;;;;22.55;71.86;99568.31;1776711;79;21033;-56
2021/07/12 04:48:11;;;;;;;9.00;8.23;;;;;;;22.61;71.16;99572.70;1770746;79;21122;-56
2021/07/12 04:50:38;;;;;;;10.93;7.58;;;;;;;22.71;71.15;99570.41;1775372;79;21109;-57
2021/07/12 04:53:06;;;;;;;7.87;7.35;;;;;;;22.81;71.54;99565.71;1770934;79;21045;-56
2021/07/12 04:55:32;;;;;;;7.37;6.85;;;;;;;22.90;72.14;99568.89;1769410;79;21042;-56
2021/07/12 04:57:59;;;;;;;6.08;5.75;;;;;;;22.98;72.45;99571.20;1763641;79;21041;-56
2021/07/12 05:00:25;;;;;;;7.65;7.15;;;;;;;23.06;72.60;99566.30;1800846;78;21200;-56
2021/07/12 05:02:51;;;;;;;6.22;5.85;;;;;;;23.14;72.61;99565.00;1773180;78;21065;-56
2021/07/12 05:05:18;;;;;;;5.90;5.50;;;;;;;23.21;72.49;99565.25;1778231;78;21131;-57
2021/07/12 05:07:45;;;;;;;6.50;5.92;;;;;;;23.29;72.57;99566.69;1798376;78;21085;-57
2021/07/12 05:10:13;;;;;;;7.55;6.80;;;;;;;23.37;71.43;99562.12;1769127;79;21064;-57
2021/07/12 05:12:40;;;;;;;7.75;6.75;;;;;;;23.47;70.92;99561.16;1773517;79;21163;-56
2021/07/12 05:15:08;;;;;;;8.28;7.58;;;;;;;23.57;70.02;99565.55;1771446;79;21143;-56
2021/07/12 05:17:36;;;;;;;10.32;8.00;;;;;;;23.69;69.46;99567.52;1755286;80;21448;-56
2021/07/12 05:20:06;;;;;;;9.58;8.78;;;;;;;23.80;68.78;99560.90;1761948;80;20966;-56
2021/07/12 05:22:32;;;;;;;7.90;7.25;;;;;;;23.93;68.42;99566.80;1757132;80;21690;-55
2021/07/12 05:24:59;;;;;;;7.12;6.53;;;;;;;24.02;68.25;99559.81;1756090;80;21159;-57
2021/07/12 05:27:26;;;;;;;7.70;6.30;;;;;;;24.13;68.40;99555.91;1757253;80;21303;-57
2021/07/12 05:29:53;;;;;;;6.42;5.25;;;;;;;24.21;67.80;99558.73;1758446;80;20985;-57
2021/07/12 05:32:19;;;;;;;7.28;6.00;;;;;;;24.30;68.33;99565.13;1758545;80;20918;-58
2021/07/12 05:34:45;;;;;;;5.72;5.33;;;;;;;24.36;69.02;99569.45;1761368;80;20996;-58
2021/07/12 05:37:12;;;;;;;7.55;6.00;;;;;;;24.42;69.82;99572.03;1760290;80;21873;-57
2021/07/12 05:39:38;;;;;;;13.45;5.37;;;;;;;24.47;69.64;99578.78;1759221;80;21315;-57
2021/07/12 05:42:04;;;;;;;9.63;7.12;;;;;;;24.51;69.60;99581.53;1763657;80;20970;-56
2021/07/12 05:44:31;;;;;;;8.65;7.30;;;;;;;24.56;69.49;99586.55;1754123;80;20962;-57
2021/07/12 05:46:57;;;;;;;7.65;6.87;;;;;;;24.60;69.15;99582.93;1758314;80;21120;-57
2021/07/12 05:49:23;;;;;;;10.03;6.00;;;;;;;24.62;69.29;99582.26;1755020;80;21894;-57
2021/07/12 05:51:50;;;;;;;6.83;5.83;;;;;;;24.67;70.17;99577.13;1757021;80;20989;-56
2021/07/12 05:54:16;;;;;;;7.17;6.40;;;;;;;24.70;70.17;99581.77;1756359;80;21666;-56
2021/07/12 05:56:42;;;;;;;11.50;6.97;;;;;;;24.74;69.90;99576.28;1753768;80;21053;-56
2021/07/12 05:59:09;;;;;;;7.03;6.40;;;;;;;24.81;69.55;99574.58;1754853;79;21463;-56
2021/07/12 06:01:35;;;;;;;9.43;7.05;;;;;;;24.91;68.94;99571.70;1781764;78;21123;-56
2021/07/12 06:04:02;;;;;;;12.43;5.30;;;;;;;25.01;68.03;99571.55;1783237;78;21151;-57
2021/07/12 06:06:28;;;;;;;9.65;5.08;;;;;;;25.15;66.83;99567.59;1784520;78;20975;-57
2021/07/12 06:08:54;;;;;;;7.25;5.12;;;;;;;25.31;65.37;99565.87;1778980;78;21127;-57
2021/07/12 06:11:20;;;;;;;3.40;3.10;;;;;;;25.46;64.89;99560.86;1787938;78;21061;-57
2021/07/12 06:13:47;;;;;;;4.45;2.52;;;;;;;25.57;64.38;99563.79;1781914;78;21483;-56
2021/07/12 06:16:15;;;;;;;6.25;2.45;;;;;;;25.68;63.46;99562.09;1785853;78;21028;-56
2021/07/12 06:18:42;;;;;;;4.33;2.22;;;;;;;25.77;61.00;99562.94;1784373;79;20996;-56
2021/07/12 06:21:08;;;;;;;4.50;2.65;;;;;;;25.86;60.42;99561.33;1799508;77;21131;-55
2021/07/12 06:23:34;;;;;;;6.95;2.20;;;;;;;25.95;59.71;99566.31;1799414;78;21120;-55
2021/07/12 06:26:01;;;;;;;4.05;1.90;;;;;;;26.03;59.05;99562.15;1799613;77;22051;-56
2021/07/12 06:28:27;;;;;;;4.12;2.02;;;;;;;26.12;59.05;99565.22;1803955;78;21546;-55
2021/07/12 06:30:54;;;;;;;4.15;1.82;;;;;;;26.20;58.98;99573.47;1797913;77;21498;-56
2021/07/12 06:33:21;;;;;;;2.75;2.00;;;;;;;26.29;58.78;99579.84;1804528;78;21047;-56
2021/07/12 06:38:13;;;;;;;2.47;2.30;;;;;;;26.53;57.92;99583.05;1861340;75;21665;-55
2021/07/12 06:40:39;;;;;;;2.90;2.40;;;;;;;26.58;57.72;99591.63;1830224;77;21470;-55
2021/07/12 06:43:06;;;;;;;2.70;2.50;;;;;;;26.67;57.66;99597.45;1814140;77;21182;-56
2021/07/12 06:45:34;;;;;;;5.03;2.80;;;;;;;26.76;57.05;99600.52;1812058;77;21354;-57
2021/07/12 06:48:01;;;;;;;5.42;3.17;;;;;;;26.83;56.76;99608.41;1813299;77;20961;-56
2021/07/12 06:50:27;;;;;;;3.95;3.62;;;;;;;26.87;56.82;99611.68;1810056;77;21555;-56
2021/07/12 06:52:53;;;;;;;9.70;3.83;;;;;;;26.91;56.54;99611.16;1812118;77;21488;-54
2021/07/12 06:55:20;;;;;;;5.58;3.92;;;;;;;26.93;56.02;99620.13;1747398;80;21299;-54
2021/07/12 06:57:46;;;;;;;4.97;4.37;;;;;;;26.93;55.48;99625.65;1744604;80;21070;-56
2021/07/12 07:00:14;;;;;;;11.22;4.42;;;;;;;26.90;55.14;99626.48;1746225;80;21104;-55
2021/07/12 07:02:42;;;;;;;5.30;3.83;;;;;;;26.82;55.26;99618.25;1742091;80;21375;-57
2021/07/12 07:05:09;;;;;;;7.55;4.03;;;;;;;26.72;55.37;99624.85;1750142;80;21392;-57
2021/07/12 07:07:36;;;;;;;5.22;4.42;;;;;;;26.63;55.90;99619.55;1750950;80;21171;-57
2021/07/12 07:10:05;;;;;;;7.40;3.83;;;;;;;26.54;56.31;99608.23;1750165;80;21002;-55
2021/07/12 07:12:33;;;;;;;5.42;4.37;;;;;;;26.49;56.78;99599.61;1743440;79;21081;-56
2021/07/12 07:14:59;;;;;;;4.67;4.28;;;;;;;26.45;56.96;99603.27;1747817;79;21468;-57
2021/07/12 07:17:25;;;;;;;7.28;4.55;;;;;;;26.44;57.12;99600.16;1745763;79;21088;-56
2021/07/12 07:19:53;;;;;;;7.15;4.70;;;;;;;26.42;57.40;99598.09;1748124;79;21120;-57
2021/07/12 07:22:20;;;;;;;4.40;4.00;;;;;;;26.43;57.67;99599.82;1745466;79;21330;-58
2021/07/12 07:24:51;;;;;;;5.78;3.55;;;;;;;26.38;57.90;99605.86;1743983;79;21434;-56
2021/07/12 07:27:18;;;;;;;3.72;3.55;;;;;;;26.35;58.08;99603.48;1745199;80;20998;-58
2021/07/12 07:29:45;;;;;;;5.08;4.78;;;;;;;26.36;58.14;99596.06;1745710;80;21425;-57
2021/07/12 07:32:11;;;;;;;12.88;6.25;;;;;;;26.37;58.28;99604.65;1770480;78;21919;-58
2021/07/12 07:34:38;;;;;;;5.20;4.90;;;;;;;26.37;58.93;99611.03;1773571;78;21535;-58
2021/07/12 07:37:04;;;;;;;4.47;4.15;;;;;;;26.37;59.42;99614.31;1767792;78;21124;-59
2021/07/12 07:39:31;;;;;;;6.58;3.83;;;;;;;26.35;60.15;99613.13;1765415;79;21103;-59
2021/07/12 07:41:58;;;;;;;4.12;3.83;;;;;;;26.35;59.85;99621.41;1753732;79;21361;-59
2021/07/12 07:44:25;;;;;;;5.83;3.85;;;;;;;26.36;60.05;99623.14;1756340;79;22707;-57
2021/07/12 07:46:51;;;;;;;4.12;3.72;;;;;;;26.38;60.22;99631.20;1757027;79;21366;-59
2021/07/12 07:49:18;;;;;;;5.55;5.20;;;;;;;26.42;60.28;99625.69;1755598;79;21434;-59
2021/07/12 07:51:44;;;;;;;11.25;4.05;;;;;;;26.42;60.11;99627.59;1758524;79;21062;-58
2021/07/12 07:54:12;;;;;;;4.97;4.67;;;;;;;26.39;60.17;99628.80;1756039;79;21682;-57
2021/07/12 07:56:39;;;;;;;9.13;5.25;;;;;;;26.39;60.33;99621.89;1759394;79;21291;-59
2021/07/12 07:59:05;;;;;;;5.53;5.10;;;;;;;26.39;60.36;99624.66;1757980;79;22287;-58
2021/07/12 08:01:32;;;;;;;5.15;4.50;;;;;;;26.39;60.35;99619.14;1757907;79;21068;-58
2021/07/12 08:03:58;;;;;;;4.80;4.60;;;;;;;26.38;60.38;99622.93;1759522;79;21088;-58
2021/07/12 08:06:25;;;;;;;4.97;4.15;;;;;;;26.36;60.78;99621.75;1759430;79;21108;-58
2021/07/12 08:08:52;;;;;;;4.37;3.87;;;;;;;26.33;60.48;99620.72;1761890;79;21074;-58
2021/07/12 08:11:19;;;;;;;4.80;3.80;;;;;;;26.34;60.52;99623.83;1755805;79;20954;-58
2021/07/12 08:13:45;;;;;;;4.55;4.20;;;;;;;26.35;60.56;99620.03;1759933;79;20906;-58
2021/07/12 08:16:12;;;;;;;4.67;4.28;;;;;;;26.37;60.32;99614.31;1760019;79;20962;-59
2021/07/12 08:18:40;;;;;;;4.53;4.22;;;;;;;26.38;59.97;99612.75;1761173;79;20934;-58
2021/07/12 08:21:10;;;;;;;4.10;3.37;;;;;;;26.41;60.13;99614.31;1759829;79;21244;-57
2021/07/12 08:23:36;;;;;;;9.55;4.65;;;;;;;26.44;60.00;99614.48;1761548;79;21373;-56
2021/07/12 08:26:03;;;;;;;4.65;3.95;;;;;;;26.47;60.09;99615.48;1759724;79;20933;-56
2021/07/12 08:28:29;;;;;;;4.30;3.72;;;;;;;26.51;59.97;99611.34;1764047;79;20958;-58
2021/07/12 08:30:55;;;;;;;6.28;4.33;;;;;;;26.53;59.65;99605.99;1762118;79;20917;-57
2021/07/12 08:33:23;;;;;;;4.78;4.47;;;;;;;26.56;59.71;99604.23;1757270;79;22614;-59
2021/07/12 08:35:49;;;;;;;4.05;3.80;;;;;;;26.62;59.98;99597.15;1762697;79;20936;-57
2021/07/12 08:40:22;;;;;;;5.00;4.70;;;;;;;26.73;59.16;99589.82;1791033;78;23604;-58
2021/07/12 08:42:50;;;;;;;4.85;4.47;;;;;;;26.72;59.20;99598.63;1721351;81;21457;-59
2021/07/12 08:45:17;;;;;;;4.40;4.00;;;;;;;26.74;58.44;99589.64;1714155;81;22575;-58
2021/07/12 08:47:43;;;;;;;3.80;3.50;;;;;;;26.80;58.36;99594.09;1683439;83;21437;-58
2021/07/12 08:50:12;;;;;;;3.50;3.25;;;;;;;26.85;58.25;99592.52;1716253;81;21547;-58
2021/07/12 08:52:47;;;;;;;4.45;4.17;;;;;;;26.93;58.27;99591.64;1715258;81;20962;-55
2021/07/12 08:55:14;;;;;;;2.95;2.75;;;;;;;26.99;57.55;99590.38;1684625;83;20986;-58
2021/07/12 08:57:40;;;;;;;3.12;2.95;;;;;;;27.07;57.50;99590.33;1688039;83;21153;-59
2021/07/12 09:00:09;;;;;;;4.37;3.62;;;;;;;27.16;57.34;99590.27;1688885;83;21065;-58
2021/07/12 09:02:37;;;;;;;4.30;4.00;;;;;;;27.25;57.06;99590.03;1661680;83;21017;-58
2021/07/12 09:05:06;;;;;;;4.20;4.00;;;;;;;27.34;57.06;99593.59;1690889;83;21057;-57
2021/07/12 09:07:33;;;;;;;4.37;4.17;;;;;;;27.45;57.23;99595.92;1656297;83;21033;-54
2021/07/12 09:10:15;;;;;;;4.35;4.05;;;;;;;27.54;57.22;99600.89;1710358;81;21146;-56
2021/07/12 09:12:43;;;;;;;4.95;4.42;;;;;;;27.63;57.40;99599.77;1708397;81;21105;-57
2021/07/12 09:15:14;;;;;;;4.35;4.05;;;;;;;27.68;56.56;99600.92;1713561;81;20953;-54
2021/07/12 09:17:43;;;;;;;6.22;4.92;;;;;;;27.76;56.43;99599.98;1710382;81;21069;-55
2021/07/12 09:20:12;;;;;;;3.90;3.80;;;;;;;27.81;56.21;99597.01;1712309;81;21841;-54
2021/07/12 09:22:40;;;;;;;4.62;4.30;;;;;;;27.82;55.73;99601.47;1711731;81;21820;-57
2021/07/12 09:25:10;;;;;;;4.47;4.28;;;;;;;27.81;55.55;99605.30;1708778;81;21116;-54
2021/07/12 09:27:39;;;;;;;4.62;4.25;;;;;;;27.82;56.26;99608.90;1711358;81;22333;-58
2021/07/12 09:30:16;;;;;;;3.70;3.40;;;;;;;27.83;56.04;99611.48;1688897;83;20974;-56
2021/07/12 09:32:45;;;;;;;4.33;3.87;;;;;;;27.85;55.92;99614.93;1678094;83;21099;-54
2021/07/12 09:35:16;;;;;;;4.75;4.45;;;;;;;27.88;55.80;99619.75;1682238;83;21718;-55
2021/07/12 09:37:46;;;;;;;4.58;4.20;;;;;;;27.87;55.08;99616.12;1711015;81;21262;-56
2021/07/12 09:40:17;;;;;;;3.75;3.40;;;;;;;27.88;55.38;99630.82;1676745;83;21063;-57
2021/07/12 09:42:48;;;;;;;4.20;3.90;;;;;;;27.91;55.81;99634.05;1745816;80;20957;-57
2021/07/12 09:45:17;;;;;;;4.17;3.98;;;;;;;27.96;56.36;99632.98;1743844;80;20930;-57
2021/07/12 09:47:44;;;;;;;4.75;4.33;;;;;;;27.99;55.71;99632.58;1749147;80;21129;-56
2021/07/12 09:50:20;;;;;;;5.62;4.67;;;;;;;28.05;55.86;99644.83;1742373;80;21130;-56
2021/07/12 09:52:52;;;;;;;4.92;4.58;;;;;;;28.11;55.88;99640.77;1740790;80;21189;-57
2021/07/12 09:55:32;;;;;;;5.08;4.78;;;;;;;28.13;55.54;99637.82;1741108;80;20938;-57
2021/07/12 09:58:17;;;;;;;6.72;4.65;;;;;;;28.15;55.70;99637.98;1739861;80;20962;-58
2021/07/12 10:00:54;;;;;;;3.83;3.50;;;;;;;28.20;56.00;99633.28;1742246;80;21487;-57
2021/07/12 10:03:22;;;;;;;5.47;3.92;;;;;;;28.23;55.66;99636.54;1742637;80;21272;-55
2021/07/12 10:05:48;;;;;;;4.80;4.40;;;;;;;28.23;55.70;99631.00;1742438;80;21356;-56
2021/07/12 10:08:16;;;;;;;6.05;5.55;;;;;;;28.25;55.44;99634.94;1743933;80;20912;-57
2021/07/12 10:10:44;;;;;;;6.65;5.08;;;;;;;28.26;55.42;99632.51;1740095;80;21143;-58
2021/07/12 10:13:11;;;;;;;7.83;5.08;;;;;;;28.25;55.42;99634.94;1740758;80;22819;-56
2021/07/12 10:15:37;;;;;;;5.58;4.90;;;;;;;28.25;55.80;99625.25;1736500;80;21089;-56
2021/07/12 10:18:05;;;;;;;5.40;4.78;;;;;;;28.25;55.67;99628.02;1740035;80;21061;-55
2021/07/12 10:20:33;;;;;;;10.00;5.95;;;;;;;28.25;55.24;99625.25;1741879;80;20938;-57
2021/07/12 10:22:59;;;;;;;5.25;4.95;;;;;;;28.22;55.39;99618.73;1741627;80;20966;-57
2021/07/12 10:25:27;;;;;;;6.17;4.80;;;;;;;28.18;55.24;99620.14;1743649;80;21066;-58
2021/07/12 10:28:00;;;;;;;8.00;5.17;;;;;;;28.16;55.45;99625.00;1742700;80;20883;-56
2021/07/12 10:30:36;;;;;;;5.90;5.58;;;;;;;28.16;55.92;99625.00;1715739;80;21554;-58
2021/07/12 10:33:08;;;;;;;5.62;5.12;;;;;;;28.14;56.29;99623.80;1711058;81;20921;-54
2021/07/12 10:35:44;;;;;;;6.70;6.20;;;;;;;28.11;56.34;99624.17;1710313;81;20941;-57
2021/07/12 10:38:39;;;;;;;6.40;5.78;;;;;;;28.09;56.43;99618.48;1714173;81;21065;-55
2021/07/12 10:41:18;;;;;;;8.45;6.12;;;;;;;28.04;56.24;99607.14;1689418;82;20986;-56
2021/07/12 10:43:48;;;;;;;6.62;6.22;;;;;;;27.98;56.69;99606.52;1678462;82;21025;-55
2021/07/12 10:46:30;;;;;;;6.33;5.92;;;;;;;27.96;57.17;99605.84;1668979;83;20947;-57
2021/07/12 10:49:07;;;;;;;7.15;6.53;;;;;;;27.93;57.24;99608.97;1669413;83;21155;-55
2021/07/12 10:51:37;;;;;;;6.78;6.37;;;;;;;27.92;57.50;99598.95;1665967;83;21765;-58
2021/07/12 10:54:11;;;;;;;8.50;5.87;;;;;;;27.90;58.01;99586.72;1690009;82;21107;-58
2021/07/12 10:56:54;;;;;;;5.75;5.55;;;;;;;27.90;58.28;99573.41;1699988;82;20898;-57
2021/07/12 10:59:33;;;;;;;16.87;6.10;;;;;;;27.92;58.39;99571.30;1690108;82;21018;-58
2021/07/12 11:02:18;;;;;;;5.90;5.55;;;;;;;27.94;58.69;99561.77;1659892;84;21884;-58
2021/07/12 11:04:47;;;;;;;5.87;5.33;;;;;;;27.99;58.68;99562.56;1666913;83;22134;-56
2021/07/12 11:07:16;;;;;;;5.70;5.35;;;;;;;28.03;58.56;99557.86;1657719;83;21080;-57
2021/07/12 11:09:56;;;;;;;7.10;5.78;;;;;;;28.06;58.31;99549.19;1669297;83;20993;-56
2021/07/12 11:12:34;;;;;;;6.28;5.87;;;;;;;28.09;57.99;99544.63;1676513;83;21428;-56
2021/07/12 11:15:11;;;;;;;6.47;5.90;;;;;;;28.10;57.50;99535.81;1682942;83;21441;-56
2021/07/12 11:18:01;;;;;;;6.70;5.50;;;;;;;28.05;56.90;99530.87;1679996;83;20978;-59
2021/07/12 11:20:48;;;;;;;7.15;5.65;;;;;;;28.01;56.99;99528.66;1679880;83;20930;-57
2021/07/12 11:23:50;;;;;;;5.33;4.83;;;;;;;27.96;56.89;99519.56;1680094;83;21433;-58
2021/07/12 11:26:27;;;;;;;5.67;5.37;;;;;;;27.94;57.19;99520.80;1677398;83;20943;-56
2021/07/12 11:28:57;;;;;;;5.35;5.08;;;;;;;27.94;57.79;99516.64;1679935;83;20981;-58
2021/07/12 11:31:55;;;;;;;6.97;5.10;;;;;;;27.93;57.48;99518.55;1680869;83;21816;-57
2021/07/12 11:34:37;;;;;;;6.40;4.97;;;;;;;27.94;56.87;99518.89;1680955;83;20950;-58
2021/07/12 11:37:11;;;;;;;5.40;4.80;;;;;;;27.93;57.22;99524.61;1683985;83;21300;-55
2021/07/12 11:39:54;;;;;;;4.65;3.58;;;;;;;27.95;57.47;99523.89;1682628;83;21584;-56
2021/07/12 11:42:34;;;;;;;5.67;5.25;;;;;;;28.00;57.89;99520.02;1683964;83;20982;-55
2021/07/12 11:45:10;;;;;;;4.17;3.87;;;;;;;28.06;58.23;99522.91;1680786;83;21810;-56
2021/07/12 11:47:45;;;;;;;5.25;3.47;;;;;;;28.10;57.12;99519.21;1667959;83;20878;-55
2021/07/12 11:50:15;;;;;;;5.22;3.42;;;;;;;28.13;56.60;99525.23;1688473;82;21072;-57
2021/07/12 11:52:45;;;;;;;4.00;3.70;;;;;;;28.17;56.15;99529.34;1678801;82;21414;-57